Terminal Aerodrome Forecast
Issued by NWS Portland, ME

Home | Current Version | Previous Version | Text Only | Print | Product List | Glossary On
Versions: 1 2 3 4 5 6 7 8 9 10 11 12 13 14 15
000
FTUS41 KGYX 221700
TAFPWM
TAF
KPWM 221723Z 2218/2318 18012KT P6SM SCT040
     FM230100 21004KT P6SM SKC
     FM231500 20012KT P6SM SCT250=

USA.gov is the U.S. government's official web portal to all federal, state and local government web resources and services.